createdAt,value
2022-09-07T00:00:01.458Z,11.63
2022-09-07T00:02:33.788Z,10.43
2022-09-07T00:05:03.479Z,9.47
2022-09-07T00:07:33.044Z,9.00
2022-09-07T00:10:02.996Z,10.35
2022-09-07T00:12:32.563Z,11.50
2022-09-07T00:15:03.592Z,11.48
2022-09-07T00:17:33.968Z,11.48
2022-09-07T00:20:06.366Z,13.00
2022-09-07T00:22:37.201Z,13.53
2022-09-07T00:25:07.722Z,13.30
2022-09-07T00:27:37.686Z,13.05
2022-09-07T00:30:09.331Z,21.65
2022-09-07T00:32:39.702Z,25.85
2022-09-07T00:35:09.555Z,11.10
2022-09-07T00:37:39.272Z,11.77
2022-09-07T00:40:10.586Z,11.67
2022-09-07T00:42:40.526Z,10.65
2022-09-07T00:45:21.617Z,10.57
2022-09-07T00:48:01.330Z,12.40
2022-09-07T00:51:03.348Z,13.63
2022-09-07T00:53:41.133Z,12.68
2022-09-07T00:56:12.549Z,11.90
2022-09-07T00:58:44.405Z,11.43
2022-09-07T01:01:14.988Z,11.70
2022-09-07T01:03:51.315Z,11.00
2022-09-07T01:06:35.101Z,11.93
2022-09-07T01:09:11.516Z,11.88
2022-09-07T01:11:41.679Z,10.67
2022-09-07T01:14:15.590Z,10.70
2022-09-07T01:16:54.430Z,9.60
2022-09-07T01:20:01.452Z,9.93
2022-09-07T01:23:15.609Z,10.93
2022-09-07T01:25:54.814Z,9.07
2022-09-07T01:28:36.979Z,8.85
2022-09-07T01:31:13.614Z,8.63
2022-09-07T01:33:58.900Z,8.13
2022-09-07T01:36:34.803Z,8.40
2022-09-07T01:39:07.401Z,8.05
2022-09-07T01:42:03.263Z,8.05
2022-09-07T01:44:51.927Z,7.32
2022-09-07T01:47:50.312Z,7.68
2022-09-07T01:50:35.393Z,8.10
2022-09-07T01:53:17.797Z,8.88
2022-09-07T01:55:53.453Z,7.65
2022-09-07T01:58:41.330Z,8.10
2022-09-07T02:01:33.167Z,8.50
2022-09-07T02:04:12.316Z,7.82
2022-09-07T02:07:03.736Z,7.57
2022-09-07T02:09:53.987Z,7.83
2022-09-07T02:12:31.867Z,7.30
2022-09-07T02:15:07.616Z,7.82
2022-09-07T02:17:46.765Z,7.30
2022-09-07T02:20:40.851Z,7.70
2022-09-07T02:23:22.098Z,9.00
2022-09-07T02:26:02.750Z,8.63
2022-09-07T02:28:36.342Z,7.28
2022-09-07T02:31:07.749Z,7.78
2022-09-07T02:33:37.877Z,8.40
2022-09-07T02:36:08.598Z,8.30
2022-09-07T02:38:38.935Z,8.90
2022-09-07T02:41:37.938Z,9.05
2022-09-07T02:44:22.180Z,9.35
2022-09-07T02:47:24.065Z,8.83
2022-09-07T02:50:18.794Z,9.20
2022-09-07T02:53:14.872Z,9.30
2022-09-07T02:56:00.504Z,9.07
2022-09-07T02:58:49.025Z,8.70
2022-09-07T03:01:33.764Z,8.65
2022-09-07T03:04:27.769Z,8.10
2022-09-07T03:07:11.927Z,6.05
2022-09-07T03:09:47.849Z,6.88
2022-09-07T03:12:18.769Z,7.17
2022-09-07T03:14:51.748Z,7.25
2022-09-07T03:17:24.282Z,7.88
2022-09-07T03:19:54.431Z,8.10
2022-09-07T03:22:24.386Z,8.32
2022-09-07T03:24:55.611Z,8.55
2022-09-07T03:27:26.050Z,9.23
2022-09-07T03:30:00.568Z,8.32
2022-09-07T03:32:39.373Z,8.25
2022-09-07T03:35:10.289Z,7.75
2022-09-07T03:37:40.829Z,8.55
2022-09-07T03:40:13.280Z,7.82
2022-09-07T03:42:44.631Z,8.30
2022-09-07T03:45:16.413Z,7.43
2022-09-07T03:47:47.127Z,6.95
2022-09-07T03:50:17.790Z,7.15
2022-09-07T03:52:48.527Z,7.72
2022-09-07T03:55:22.088Z,7.65
2022-09-07T03:57:52.048Z,8.68
2022-09-07T04:00:24.149Z,8.80
2022-09-07T04:02:54.209Z,8.23
2022-09-07T04:05:23.887Z,8.88
2022-09-07T04:07:53.946Z,7.20
2022-09-07T04:10:23.642Z,7.45
2022-09-07T04:12:53.424Z,7.35
2022-09-07T04:15:22.900Z,7.78
2022-09-07T04:17:52.632Z,9.52
2022-09-07T04:20:22.135Z,8.68
2022-09-07T04:22:54.296Z,8.52
2022-09-07T04:25:24.631Z,7.72
2022-09-07T04:27:54.338Z,7.47
2022-09-07T04:30:24.079Z,7.45
2022-09-07T04:32:53.984Z,7.65
2022-09-07T04:35:24.384Z,8.68
2022-09-07T04:37:54.219Z,7.97
2022-09-07T04:40:23.721Z,7.65
2022-09-07T04:42:53.650Z,7.30
2022-09-07T04:45:23.158Z,8.00
2022-09-07T04:47:53.557Z,7.95
2022-09-07T04:50:25.070Z,8.43
2022-09-07T04:52:55.600Z,8.18
2022-09-07T04:55:25.047Z,8.10
2022-09-07T04:57:54.934Z,8.20
2022-09-07T05:00:24.476Z,7.90
2022-09-07T05:02:54.413Z,8.18
2022-09-07T05:05:24.994Z,8.35
2022-09-07T05:07:54.691Z,8.52
2022-09-07T05:10:24.793Z,9.32
2022-09-07T05:12:54.701Z,8.77
2022-09-07T05:15:24.357Z,9.25
2022-09-07T05:17:53.968Z,9.52
2022-09-07T05:20:23.640Z,9.57
2022-09-07T05:23:00.872Z,9.43
2022-09-07T05:25:31.406Z,9.73
2022-09-07T05:28:01.590Z,10.00
2022-09-07T05:33:21.725Z,9.65
2022-09-07T05:36:01.688Z,9.75
2022-09-07T05:38:31.990Z,10.15
2022-09-07T05:41:01.899Z,10.32
2022-09-07T05:43:32.524Z,10.60
2022-09-07T05:46:02.182Z,10.38
2022-09-07T05:48:32.727Z,10.30
2022-09-07T05:51:02.880Z,9.73
2022-09-07T05:53:32.912Z,9.20
2022-09-07T05:56:06.949Z,9.30
2022-09-07T05:58:38.167Z,9.57
2022-09-07T06:01:14.126Z,9.73
2022-09-07T06:03:45.772Z,10.25
2022-09-07T06:06:23.392Z,10.00
2022-09-07T06:08:55.204Z,10.18
2022-09-07T06:11:26.476Z,9.73
2022-09-07T06:14:04.174Z,18.20
2022-09-07T06:16:36.353Z,11.90
2022-09-07T06:19:08.063Z,10.65
2022-09-07T06:21:39.635Z,10.73
2022-09-07T06:24:09.493Z,10.75
2022-09-07T06:26:39.155Z,10.95
2022-09-07T06:29:08.699Z,10.70
2022-09-07T06:34:28.547Z,9.93
2022-09-07T06:36:58.249Z,10.60
2022-09-07T06:39:29.793Z,10.15
2022-09-07T06:42:00.302Z,10.75
2022-09-07T06:44:35.882Z,10.73
2022-09-07T06:47:06.594Z,10.70
2022-09-07T06:49:36.565Z,10.82
2022-09-07T06:52:06.141Z,11.00
2022-09-07T06:57:25.588Z,10.55
2022-09-07T06:59:55.565Z,10.57
2022-09-07T07:02:25.270Z,11.13
2022-09-07T07:04:54.879Z,10.25
2022-09-07T07:07:24.305Z,11.10
2022-09-07T07:09:53.922Z,10.50
2022-09-07T07:14:50.605Z,11.20
2022-09-07T07:17:20.013Z,11.32
2022-09-07T07:19:50.639Z,10.40
2022-09-07T07:25:10.763Z,11.13
2022-09-07T07:27:40.395Z,10.90
2022-09-07T07:30:11.266Z,10.80
2022-09-07T07:32:42.142Z,11.55
2022-09-07T07:35:13.082Z,11.25
2022-09-07T07:37:42.837Z,9.82
2022-09-07T07:42:49.038Z,9.63
2022-09-07T07:48:09.068Z,10.82
2022-09-07T07:50:39.079Z,10.80
2022-09-07T07:56:03.599Z,10.45
2022-09-07T07:58:34.950Z,10.10
2022-09-07T08:01:16.213Z,10.65
2022-09-07T08:03:48.579Z,10.35
2022-09-07T08:06:20.755Z,10.98
2022-09-07T08:08:50.664Z,10.60
2022-09-07T08:11:24.288Z,11.57
2022-09-07T08:14:07.275Z,11.63
2022-09-07T08:16:37.522Z,12.30
2022-09-07T08:19:07.354Z,12.15
2022-09-07T08:21:37.398Z,11.70
2022-09-07T08:24:07.843Z,10.88
2022-09-07T08:26:37.571Z,10.40
2022-09-07T08:29:07.021Z,10.98
2022-09-07T08:31:36.733Z,11.13
2022-09-07T08:34:06.532Z,11.73
2022-09-07T08:36:36.182Z,11.38
2022-09-07T08:39:06.712Z,11.35
2022-09-07T08:42:04.615Z,11.55
2022-09-07T08:44:40.038Z,11.35
2022-09-07T08:47:20.455Z,10.75
2022-09-07T08:50:02.548Z,10.70
2022-09-07T08:52:57.630Z,11.00
2022-09-07T08:55:45.260Z,12.47
2022-09-07T08:58:52.268Z,11.32
2022-09-07T09:01:31.445Z,12.32
2022-09-07T09:04:19.411Z,11.55
2022-09-07T09:07:28.652Z,11.10
2022-09-07T09:10:27.482Z,14.83
2022-09-07T09:13:38.248Z,11.00
2022-09-07T09:16:21.909Z,11.30
2022-09-07T09:19:12.328Z,11.05
2022-09-07T09:21:43.985Z,11.87
2022-09-07T09:24:21.899Z,12.32
2022-09-07T09:27:00.010Z,12.65
2022-09-07T09:29:31.175Z,11.00
2022-09-07T09:32:03.357Z,11.52
2022-09-07T09:34:36.551Z,10.80
2022-09-07T09:37:07.959Z,11.15
2022-09-07T09:39:44.170Z,10.45
2022-09-07T09:42:26.097Z,10.38
2022-09-07T09:45:08.702Z,11.13
2022-09-07T09:47:50.575Z,10.17
2022-09-07T09:54:12.422Z,11.70
2022-09-07T09:56:51.106Z,11.38
2022-09-07T09:59:57.492Z,12.05
2022-09-07T10:05:55.099Z,11.55
2022-09-07T10:08:37.678Z,12.23
2022-09-07T10:11:17.354Z,12.10
2022-09-07T10:14:02.657Z,11.97
2022-09-07T10:16:47.660Z,11.65
2022-09-07T10:19:44.088Z,12.50
2022-09-07T10:22:42.985Z,12.40
2022-09-07T10:25:50.900Z,12.18
2022-09-07T10:29:06.548Z,12.25
2022-09-07T10:31:34.893Z,11.65
2022-09-07T10:34:37.424Z,12.57
2022-09-07T10:37:46.240Z,10.95
2022-09-07T10:40:34.297Z,11.75
2022-09-07T10:43:53.537Z,12.73
2022-09-07T10:47:08.373Z,12.40
2022-09-07T10:50:24.892Z,12.82
2022-09-07T10:53:46.744Z,12.93
2022-09-07T10:57:13.738Z,12.27
2022-09-07T11:00:14.465Z,12.07
2022-09-07T11:09:19.889Z,12.07
2022-09-07T11:12:20.751Z,12.48
2022-09-07T11:15:15.775Z,13.18
2022-09-07T11:18:24.571Z,12.68
2022-09-07T11:21:02.973Z,12.73
2022-09-07T11:24:05.185Z,12.05
2022-09-07T11:27:06.441Z,12.77
2022-09-07T11:30:05.429Z,13.38
2022-09-07T11:32:51.469Z,13.07
2022-09-07T11:36:17.834Z,13.63
2022-09-07T11:39:18.394Z,14.07
2022-09-07T11:45:10.990Z,14.03
2022-09-07T11:48:05.236Z,15.32
2022-09-07T11:50:44.275Z,14.30
2022-09-07T11:53:35.176Z,15.32
2022-09-07T11:56:18.159Z,15.98
2022-09-07T11:58:51.206Z,16.40
2022-09-07T12:01:54.375Z,16.10
2022-09-07T12:05:05.836Z,16.08
2022-09-07T12:07:49.291Z,15.30
2022-09-07T12:11:10.316Z,16.80
2022-09-07T12:14:05.034Z,17.10
2022-09-07T12:16:40.996Z,16.20
2022-09-07T12:19:20.921Z,18.08
2022-09-07T12:21:51.700Z,16.73
2022-09-07T12:24:45.183Z,18.45
2022-09-07T12:27:24.094Z,19.27
2022-09-07T12:30:18.492Z,18.92
2022-09-07T12:32:57.345Z,19.58
2022-09-07T12:35:35.858Z,19.02
2022-09-07T12:38:30.275Z,18.65
2022-09-07T12:41:27.651Z,20.80
2022-09-07T12:44:08.487Z,19.67
2022-09-07T12:46:38.461Z,20.48
2022-09-07T12:49:40.414Z,21.80
2022-09-07T12:52:31.387Z,20.93
2022-09-07T12:55:31.150Z,22.58
2022-09-07T12:58:34.166Z,22.33
2022-09-07T13:01:36.717Z,22.95
2022-09-07T13:04:53.076Z,22.88
2022-09-07T13:08:08.626Z,24.65
2022-09-07T13:10:49.203Z,22.97
2022-09-07T13:17:16.074Z,24.30
2022-09-07T13:19:56.427Z,25.15
2022-09-07T13:22:39.112Z,25.35
2022-09-07T13:25:28.094Z,23.75
2022-09-07T13:28:10.363Z,23.35
2022-09-07T13:31:01.970Z,23.83
2022-09-07T13:33:34.837Z,24.38
2022-09-07T13:36:08.268Z,24.30
2022-09-07T13:38:43.333Z,26.67
2022-09-07T13:41:21.772Z,26.63
2022-09-07T13:44:01.330Z,22.43
2022-09-07T13:46:43.206Z,23.85
2022-09-07T13:49:43.048Z,24.80
2022-09-07T13:52:56.345Z,22.97
2022-09-07T13:55:43.419Z,24.05
2022-09-07T13:58:54.335Z,23.55
2022-09-07T14:01:35.328Z,23.08
2022-09-07T14:04:10.052Z,23.80
2022-09-07T14:09:25.661Z,25.48
2022-09-07T14:12:02.888Z,26.48
2022-09-07T14:14:38.297Z,26.83
2022-09-07T14:17:16.937Z,27.77
2022-09-07T14:20:02.175Z,28.55
2022-09-07T14:22:42.909Z,27.48
2022-09-07T14:25:29.766Z,24.85
2022-09-07T14:28:04.513Z,16.45
2022-09-07T14:30:43.102Z,16.53
2022-09-07T14:33:21.583Z,15.90
2022-09-07T14:35:52.212Z,16.80
2022-09-07T14:41:25.895Z,17.17
2022-09-07T14:44:02.389Z,16.83
2022-09-07T14:46:36.596Z,16.95
2022-09-07T14:49:21.714Z,17.30
2022-09-07T14:51:57.671Z,17.15
2022-09-07T14:54:34.221Z,16.50
2022-09-07T14:57:18.211Z,17.70
2022-09-07T14:59:56.333Z,16.98
2022-09-07T15:02:36.841Z,18.08
2022-09-07T15:05:19.316Z,18.93
2022-09-07T15:07:56.420Z,18.95
2022-09-07T15:10:41.338Z,18.48
2022-09-07T15:13:37.351Z,18.17
2022-09-07T15:16:22.937Z,18.90
2022-09-07T15:18:57.122Z,18.55
2022-09-07T15:21:39.648Z,18.70
2022-09-07T15:24:16.540Z,17.33
2022-09-07T15:27:09.544Z,19.58
2022-09-07T15:29:43.417Z,17.73
2022-09-07T15:32:20.964Z,19.20
2022-09-07T15:35:00.629Z,17.92
2022-09-07T15:40:29.205Z,15.32
2022-09-07T15:43:20.662Z,15.95
2022-09-07T15:45:56.150Z,14.83
2022-09-07T15:48:27.408Z,14.73
2022-09-07T15:54:12.744Z,13.60
2022-09-07T15:57:48.367Z,13.35
2022-09-07T15:59:42.432Z,12.30
2022-09-07T16:05:11.777Z,14.95
2022-09-07T16:10:42.911Z,16.38
2022-09-07T16:13:20.046Z,17.95
2022-09-07T16:15:51.498Z,18.02
2022-09-07T16:18:23.059Z,19.20
2022-09-07T16:21:00.602Z,19.42
2022-09-07T16:23:34.227Z,19.02
2022-09-07T16:26:14.203Z,19.40
2022-09-07T16:28:46.535Z,20.13
2022-09-07T16:31:20.629Z,20.00
2022-09-07T16:33:53.870Z,19.73
2022-09-07T16:36:28.128Z,14.65
2022-09-07T16:39:02.762Z,11.93
2022-09-07T16:41:38.729Z,12.38
2022-09-07T16:44:10.490Z,12.05
2022-09-07T16:46:43.198Z,11.88
2022-09-07T16:49:18.272Z,11.20
2022-09-07T16:51:51.143Z,11.43
2022-09-07T16:54:22.476Z,11.30
2022-09-07T16:56:57.302Z,11.70
2022-09-07T16:59:34.119Z,10.68
2022-09-07T17:02:08.088Z,10.40
2022-09-07T17:04:42.662Z,10.30
2022-09-07T17:07:15.125Z,10.27
2022-09-07T17:09:45.667Z,9.90
2022-09-07T17:12:18.880Z,10.55
2022-09-07T17:14:56.549Z,11.02
2022-09-07T17:17:31.914Z,12.60
2022-09-07T17:20:02.370Z,12.20
2022-09-07T17:22:37.658Z,11.52
2022-09-07T17:25:14.893Z,11.57
2022-09-07T17:27:48.453Z,10.85
2022-09-07T17:30:25.443Z,10.98
2022-09-07T17:32:58.290Z,11.65
2022-09-07T17:35:32.171Z,11.73
2022-09-07T17:40:58.351Z,15.85
2022-09-07T17:43:39.532Z,16.83
2022-09-07T17:46:19.604Z,17.33
2022-09-07T17:48:59.954Z,18.63
2022-09-07T17:51:34.706Z,19.95
2022-09-07T17:54:13.322Z,21.30
2022-09-07T17:56:45.312Z,22.83
2022-09-07T18:02:11.396Z,21.85
2022-09-07T18:04:44.188Z,24.73
2022-09-07T18:07:15.697Z,24.60
2022-09-07T18:09:46.143Z,27.23
2022-09-07T18:12:19.474Z,27.38
2022-09-07T18:14:49.714Z,26.65
2022-09-07T18:17:23.449Z,25.58
2022-09-07T18:19:56.330Z,24.85
2022-09-07T18:22:27.437Z,24.55
2022-09-07T18:25:03.432Z,25.80
2022-09-07T18:27:33.808Z,26.23
2022-09-07T18:30:06.339Z,25.60
2022-09-07T18:32:36.414Z,26.30
2022-09-07T18:35:08.489Z,25.70
2022-09-07T18:37:40.158Z,25.17
2022-09-07T18:40:11.006Z,24.23
2022-09-07T18:42:46.504Z,25.70
2022-09-07T18:45:34.808Z,25.63
2022-09-07T18:48:05.991Z,23.90
2022-09-07T18:50:36.154Z,24.70
2022-09-07T18:53:16.249Z,24.30
2022-09-07T18:55:47.923Z,25.37
2022-09-07T18:58:18.479Z,24.52
2022-09-07T19:00:58.144Z,24.80
2022-09-07T19:03:29.592Z,24.02
2022-09-07T19:06:10.434Z,25.53
2022-09-07T19:08:42.199Z,25.98
2022-09-07T19:11:16.777Z,25.98
2022-09-07T19:13:47.533Z,25.07
2022-09-07T19:16:21.623Z,23.67
2022-09-07T19:18:59.414Z,23.63
2022-09-07T19:21:47.908Z,25.30
2022-09-07T19:24:20.642Z,24.55
2022-09-07T19:26:51.389Z,22.60
2022-09-07T19:29:21.481Z,20.90
2022-09-07T19:32:13.760Z,19.48
2022-09-07T19:34:47.313Z,20.38
2022-09-07T19:37:17.887Z,21.05
2022-09-07T19:39:49.950Z,21.58
2022-09-07T19:42:20.319Z,20.63
2022-09-07T19:44:50.546Z,20.02
2022-09-07T19:47:20.726Z,20.42
2022-09-07T19:49:51.919Z,21.05
2022-09-07T19:52:25.986Z,20.20
2022-09-07T19:54:56.381Z,18.92
2022-09-07T19:57:27.028Z,20.63
2022-09-07T19:59:59.754Z,20.83
2022-09-07T20:03:10.910Z,20.15
2022-09-07T20:06:07.672Z,21.13
2022-09-07T20:08:44.410Z,20.33
2022-09-07T20:11:16.426Z,21.33
2022-09-07T20:13:49.763Z,22.20
2022-09-07T20:16:27.573Z,22.52
2022-09-07T20:19:04.089Z,22.77
2022-09-07T20:21:47.798Z,22.65
2022-09-07T20:24:26.208Z,22.20
2022-09-07T20:27:12.086Z,21.88
2022-09-07T20:29:55.249Z,21.98
2022-09-07T20:32:29.392Z,21.27
2022-09-07T20:34:59.573Z,22.33
2022-09-07T20:37:29.785Z,21.63
2022-09-07T20:39:59.627Z,19.67
2022-09-07T20:42:29.362Z,19.50
2022-09-07T20:45:00.176Z,20.02
2022-09-07T20:47:30.487Z,19.52
2022-09-07T20:50:01.500Z,19.37
2022-09-07T20:52:35.119Z,20.23
2022-09-07T20:55:05.437Z,19.38
2022-09-07T20:57:35.604Z,20.17
2022-09-07T21:00:13.364Z,19.35
2022-09-07T21:02:43.532Z,19.30
2022-09-07T21:05:13.232Z,19.58
2022-09-07T21:07:45.761Z,19.15
2022-09-07T21:10:15.815Z,19.35
2022-09-07T21:12:49.782Z,18.73
2022-09-07T21:15:19.927Z,19.20
2022-09-07T21:17:49.704Z,19.40
2022-09-07T21:20:21.137Z,18.45
2022-09-07T21:22:52.449Z,19.10
2022-09-07T21:25:23.390Z,18.33
2022-09-07T21:27:59.331Z,18.95
2022-09-07T21:30:34.381Z,17.65
2022-09-07T21:33:07.710Z,17.90
2022-09-07T21:35:42.048Z,17.75
2022-09-07T21:38:12.551Z,20.10
2022-09-07T21:40:44.005Z,18.95
2022-09-07T21:43:24.999Z,19.20
2022-09-07T21:45:54.912Z,17.70
2022-09-07T21:48:24.625Z,19.90
2022-09-07T21:51:06.158Z,18.58
2022-09-07T21:53:36.953Z,19.80
2022-09-07T21:56:10.152Z,19.43
2022-09-07T21:58:41.313Z,19.00
2022-09-07T22:05:12.609Z,20.08
2022-09-07T22:07:43.108Z,21.08
2022-09-07T22:10:12.927Z,19.90
2022-09-07T22:12:42.747Z,20.57
2022-09-07T22:15:12.841Z,20.80
2022-09-07T22:17:46.219Z,20.33
2022-09-07T22:20:16.612Z,19.23
2022-09-07T22:26:46.210Z,20.52
2022-09-07T22:29:15.599Z,20.33
2022-09-07T22:31:45.045Z,20.70
2022-09-07T22:34:14.679Z,21.38
2022-09-07T22:36:46.173Z,20.75
2022-09-07T22:39:19.217Z,20.42
2022-09-07T22:41:49.506Z,19.98
2022-09-07T22:44:20.548Z,19.83
2022-09-07T22:46:51.253Z,19.65
2022-09-07T22:49:21.075Z,19.10
2022-09-07T22:51:51.135Z,19.80
2022-09-07T22:57:43.355Z,18.75
2022-09-07T23:00:14.638Z,18.42
2022-09-07T23:02:44.334Z,16.67
2022-09-07T23:05:13.998Z,16.88
2022-09-07T23:07:43.929Z,15.13
2022-09-07T23:10:13.458Z,16.13
2022-09-07T23:12:42.986Z,16.80
2022-09-07T23:15:12.825Z,17.50
2022-09-07T23:17:43.053Z,16.90
2022-09-07T23:20:12.613Z,16.98
2022-09-07T23:22:48.771Z,16.42
2022-09-07T23:25:18.476Z,16.75
2022-09-07T23:27:48.103Z,16.42
2022-09-07T23:30:17.689Z,17.75
2022-09-07T23:32:47.042Z,17.73
2022-09-07T23:35:17.137Z,18.23
2022-09-07T23:37:46.868Z,18.38
2022-09-07T23:40:16.594Z,18.50
2022-09-07T23:42:46.007Z,17.48
2022-09-07T23:45:16.674Z,17.83
2022-09-07T23:47:46.170Z,17.57
2022-09-07T23:50:15.870Z,18.13
2022-09-07T23:52:45.781Z,19.63
2022-09-07T23:55:14.977Z,19.85
2022-09-07T23:57:44.905Z,21.58
